Crystal Island — 3EZJ3 — position and weather

sailwx.info

Track history (hours):
 
Tides and Currents Weather Stations Pressure Air Temp Water Temp Dewpoint Dewpoint Depression Visibility Wind Speed Wind Dir Waves Ship Positions

Crystal Island

Last reported at 2014-Nov-23 08:10 UTC. Time now 2014-Dec-18 02:31 UTC.
Position N 46°31' W 125°09'.
Warning: this ship's position is 24 days out of date.

Length 169 m; draft 9.9 m.

Type: Cargo ship. MMSI: 372562000.

Date/timePositionNaut miles runAvg speedWind from/ knotsBaromVisibWave heightAir tempDewpointWater temp
2014-Nov-23 08:10N 46°31' W 125°09'6 9.9
2014-Nov-23 07:33N 46°28' W 125°01'1010.0
2014-Nov-23 06:33N 46°24' W 124°48'10 9.7
2014-Nov-23 05:33N 46°20' W 124°35'1010.0
2014-Nov-23 04:33N 46°14' W 124°23'9 9.3
2014-Nov-23 03:33N 46°13' W 124°10'1010.4
2014-Nov-23 02:34N 46°12' W 123°55'1212.0
2014-Nov-23 01:33N 46°16' W 123°38'1010.2
2014-Nov-23 00:33N 46°11' W 123°25'1110.6
2014-Nov-22 23:34N 46°11' W 123°10'1110.8
2014-Nov-22 22:34N 46°06' W 122°57'9 9.4
2014-Nov-22 21:33N 45°58' W 122°49'1110.8
2014-Nov-22 20:34N 45°47' W 122°47'10 9.6
2014-Nov-22 19:33N 45°38' W 122°43'0 0.1
2014-Nov-22 18:29N 45°38' W 122°42'0 0.0
2014-Nov-22 17:14N 45°38' W 122°42'0 0.0
2014-Nov-22 16:29N 45°38' W 122°42'0 0.0
2014-Nov-22 15:32N 45°38' W 122°42'0 0.0
2014-Nov-22 14:32N 45°38' W 122°42'0 0.0
2014-Nov-22 13:26N 45°38' W 122°42'0 0.0
2014-Nov-22 12:26N 45°38' W 122°42'0 0.0
2014-Nov-22 11:23N 45°38' W 122°42'0 0.0
2014-Nov-22 10:32N 45°38' W 122°42'0 0.0
2014-Nov-22 09:32N 45°38' W 122°42'0 0.0
2014-Nov-22 08:32N 45°38' W 122°42'0 0.0
2014-Nov-22 07:29N 45°38' W 122°42'0 0.0
2014-Nov-22 06:26N 45°38' W 122°42'0 0.0
2014-Nov-22 05:32N 45°38' W 122°42'0 0.0
2014-Nov-22 04:32N 45°38' W 122°42'0 0.0
2014-Nov-22 03:29N 45°38' W 122°42'0 0.0
2014-Nov-22 02:32N 45°38' W 122°42'0 0.0
2014-Nov-22 01:32N 45°38' W 122°42'0 0.0
2014-Nov-22 00:32N 45°38' W 122°42'0 0.0
2014-Nov-21 23:29N 45°38' W 122°42'0 0.0
2014-Nov-21 22:32N 45°38' W 122°42'0 0.0
2014-Nov-21 21:32N 45°38' W 122°42'0 0.0
2014-Nov-21 20:32N 45°38' W 122°42'0 0.0
2014-Nov-21 19:32N 45°38' W 122°42'0 0.0
2014-Nov-21 18:29N 45°38' W 122°42'0 0.0
2014-Nov-21 17:32N 45°38' W 122°42'0 0.0
2014-Nov-21 16:32N 45°38' W 122°42'0 0.0
2014-Nov-21 15:32N 45°38' W 122°42'0 0.0
2014-Nov-21 14:32N 45°38' W 122°42'0 0.0
2014-Nov-21 13:32N 45°38' W 122°42'0 0.0
2014-Nov-21 12:23N 45°38' W 122°42'0 0.0
2014-Nov-21 11:32N 45°38' W 122°42'0 0.0
2014-Nov-21 10:32N 45°38' W 122°42'0 0.0
2014-Nov-21 09:32N 45°38' W 122°42'0 0.0
2014-Nov-21 08:32N 45°38' W 122°42'0 0.0
2014-Nov-21 07:32N 45°38' W 122°42'0 0.0
2014-Nov-21 06:32N 45°38' W 122°42'0 0.0
2014-Nov-21 05:32N 45°38' W 122°42'0 0.0
2014-Nov-21 04:32N 45°38' W 122°42'0 0.0
2014-Nov-21 03:32N 45°38' W 122°42'0 0.1
2014-Nov-21 02:32N 45°38' W 122°42'0 0.0
2014-Nov-21 01:29N 45°38' W 122°42'0 0.0
2014-Nov-21 00:32N 45°38' W 122°42'0 0.0
2014-Nov-20 23:29N 45°38' W 122°42'0 0.0
2014-Nov-20 22:32N 45°38' W 122°42'0 0.0
2014-Nov-20 21:26N 45°38' W 122°42'0 0.0
2014-Nov-20 20:29N 45°38' W 122°42'0 0.0
2014-Nov-20 19:32N 45°38' W 122°42'0 0.0
2014-Nov-20 18:32N 45°38' W 122°42'0 0.0
2014-Nov-20 17:32N 45°38' W 122°42'0 0.0
2014-Nov-20 16:32N 45°38' W 122°42'0 0.0
2014-Nov-20 15:32N 45°38' W 122°42'0 0.0
2014-Nov-20 14:29N 45°38' W 122°42'0 0.0
2014-Nov-20 13:32N 45°38' W 122°42'0 0.0
2014-Nov-20 12:32N 45°38' W 122°42'0 0.0
2014-Nov-20 11:32N 45°38' W 122°42'0 0.0
2014-Nov-20 10:26N 45°38' W 122°42'0 0.0
2014-Nov-20 09:32N 45°38' W 122°42'0 0.0
2014-Nov-20 08:29N 45°38' W 122°42'0 0.0
2014-Nov-20 07:32N 45°38' W 122°42'0 0.0
2014-Nov-20 06:32N 45°38' W 122°42'0 0.0
2014-Nov-20 05:32N 45°38' W 122°42'0 0.0
2014-Nov-20 04:32N 45°38' W 122°42'0 0.0
2014-Nov-20 03:32N 45°38' W 122°42'0 0.0
2014-Nov-20 02:32N 45°38' W 122°42'0 0.0
2014-Nov-20 01:32N 45°38' W 122°42'0 0.0
2014-Nov-20 00:32N 45°38' W 122°42'0 0.0
2014-Nov-19 23:32N 45°38' W 122°42'0 0.0
2014-Nov-19 22:32N 45°38' W 122°42'0 0.0
2014-Nov-19 21:26N 45°38' W 122°42'0 0.0
2014-Nov-19 20:32N 45°38' W 122°42'0 0.0
2014-Nov-19 19:32N 45°38' W 122°42'0 0.0
2014-Nov-19 18:29N 45°38' W 122°42'0 0.0
2014-Nov-19 17:32N 45°38' W 122°42'0 0.0
2014-Nov-19 16:29N 45°38' W 122°42'0 0.0
2014-Nov-19 15:32N 45°38' W 122°42'0 0.0
2014-Nov-19 14:32N 45°38' W 122°42'0 0.0
2014-Nov-19 13:32N 45°38' W 122°42'0 0.0
2014-Nov-19 12:32N 45°38' W 122°42'0 0.0
2014-Nov-19 11:29N 45°38' W 122°42'0 0.0
2014-Nov-19 10:23N 45°38' W 122°42'0 0.0
2014-Nov-19 09:32N 45°38' W 122°42'0 0.0
2014-Nov-19 08:32N 45°38' W 122°42'0 0.0
2014-Nov-19 07:23N 45°38' W 122°42'0 0.0
2014-Nov-19 06:32N 45°38' W 122°42'0 0.0
2014-Nov-19 05:29N 45°38' W 122°42'0 0.0
2014-Nov-19 04:32N 45°38' W 122°42'0 0.0
2014-Nov-19 03:32N 45°38' W 122°42'0 0.0
2014-Nov-19 02:32N 45°38' W 122°42'0 0.0
2014-Nov-19 01:32N 45°38' W 122°42'0 0.0
2014-Nov-19 00:32N 45°38' W 122°42'0 0.0
2014-Nov-18 23:32N 45°38' W 122°42'0 0.0
2014-Nov-18 22:33N 45°38' W 122°42'3 3.0
2014-Nov-18 21:34N 45°38' W 122°47'0 0.0
2014-Nov-18 20:29N 45°38' W 122°47'0 0.0
2014-Nov-18 19:32N 45°38' W 122°47'0 0.0
2014-Nov-18 18:32N 45°38' W 122°47'0 0.0
2014-Nov-18 17:29N 45°38' W 122°47'0 0.0
2014-Nov-18 16:32N 45°38' W 122°47'0 0.0
2014-Nov-18 15:32N 45°38' W 122°47'0 0.0
2014-Nov-18 14:32N 45°38' W 122°47'0 0.0
2014-Nov-18 13:32N 45°38' W 122°47'0 0.0
2014-Nov-18 12:29N 45°38' W 122°47'0 0.0
2014-Nov-18 11:32N 45°38' W 122°47'0 0.0
2014-Nov-18 10:32N 45°38' W 122°47'0 0.0
2014-Nov-18 09:32N 45°38' W 122°47'0 0.0
2014-Nov-18 08:32N 45°38' W 122°47'0 0.0
2014-Nov-18 07:32N 45°38' W 122°47'0 0.1
2014-Nov-18 06:33N 45°38' W 122°47'2 2.1
2014-Nov-18 05:30N 45°41' W 122°46'0 0.0
2014-Nov-18 04:33N 45°41' W 122°46'0 0.0
2014-Nov-18 03:33N 45°41' W 122°46'0 0.0
2014-Nov-18 02:33N 45°41' W 122°46'0 0.0
2014-Nov-18 01:33N 45°41' W 122°46'0 0.0
2014-Nov-18 00:30N 45°41' W 122°46'0 0.0
2014-Nov-17 23:33N 45°41' W 122°46'0 0.0
2014-Nov-17 22:30N 45°41' W 122°46'0 0.0
2014-Nov-17 21:33N 45°41' W 122°46'0 0.0
2014-Nov-17 20:30N 45°41' W 122°46'0 0.0
2014-Nov-17 19:33N 45°41' W 122°46'0 0.0
2014-Nov-17 18:33N 45°41' W 122°46'0 0.0
2014-Nov-17 17:33N 45°41' W 122°46'0 0.0
2014-Nov-17 16:33N 45°41' W 122°46'0 0.0
2014-Nov-17 15:33N 45°41' W 122°46'0 0.0
2014-Nov-17 14:30N 45°41' W 122°46'0 0.0
2014-Nov-17 13:33N 45°41' W 122°46'0 0.0
2014-Nov-17 12:30N 45°41' W 122°46'0 0.0
2014-Nov-17 11:33N 45°41' W 122°46'0 0.0
2014-Nov-17 10:33N 45°41' W 122°46'0 0.0
2014-Nov-17 09:30N 45°41' W 122°46'0 0.0
2014-Nov-17 08:33N 45°41' W 122°46'0 0.0
2014-Nov-17 07:33N 45°41' W 122°46'0 0.0
2014-Nov-17 06:30N 45°41' W 122°46'0 0.0
2014-Nov-17 05:33N 45°41' W 122°46'0 0.0
2014-Nov-17 04:33N 45°41' W 122°46'0 0.0
2014-Nov-17 03:30N 45°41' W 122°46'0 0.0
2014-Nov-17 02:27N 45°41' W 122°46'0 0.0
2014-Nov-17 01:33N 45°41' W 122°46'0 0.0
2014-Nov-17 00:30N 45°41' W 122°46'0 0.0
2014-Nov-16 23:33N 45°41' W 122°46'0 0.0
2014-Nov-16 22:33N 45°41' W 122°46'0 0.0
2014-Nov-16 21:33N 45°41' W 122°46'0 0.0
2014-Nov-16 20:33N 45°41' W 122°46'0 0.0
2014-Nov-16 19:33N 45°41' W 122°46'0 0.0
2014-Nov-16 18:30N 45°41' W 122°46'0 0.0
2014-Nov-16 17:33N 45°41' W 122°46'0 0.0
2014-Nov-16 16:33N 45°41' W 122°46'0 0.0
2014-Nov-16 15:33N 45°41' W 122°46'0 0.0
2014-Nov-16 14:33N 45°41' W 122°46'0 0.0
2014-Nov-16 13:33N 45°41' W 122°46'0 0.0
2014-Nov-16 12:33N 45°41' W 122°46'0 0.0
2014-Nov-16 11:33N 45°41' W 122°46'0 0.0
2014-Nov-16 10:33N 45°41' W 122°46'0 0.0
2014-Nov-16 09:33N 45°41' W 122°46'0 0.0
2014-Nov-16 08:33N 45°41' W 122°46'0 0.0
2014-Nov-16 07:24N 45°41' W 122°46'0 0.0
2014-Nov-16 06:30N 45°41' W 122°46'0 0.0
2014-Nov-16 05:27N 45°41' W 122°46'3 3.6
2014-Nov-16 04:33N 45°44' W 122°46'1111.0
2014-Nov-16 03:33N 45°55' W 122°49'1010.2
2014-Nov-16 02:33N 46°04' W 122°53'10 9.7
2014-Nov-16 01:33N 46°10' W 123°05'1010.2
2014-Nov-16 00:33N 46°09' W 123°19'9 8.6
2014-Nov-15 23:33N 46°15' W 123°27'1110.6
2014-Nov-15 22:33N 46°15' W 123°42'9 8.8
2014-Nov-15 21:33N 46°11' W 123°54'9 8.8
2014-Nov-15 20:33N 46°15' W 124°06'9 9.0
2014-Nov-15 19:33N 46°12' W 124°18'5 5.3
2014-Nov-15 18:33N 46°13' W 124°26'9 8.8
2014-Nov-15 17:33N 46°15' W 124°38'1010.3
2014-Nov-15 16:33N 46°17' W 124°53'1110.7
2014-Nov-15 15:33N 46°19' W 125°08'1110.8
2014-Nov-15 14:31N 46°21' W 125°24'  
Track history (hours):
 
Tides and Currents Weather Stations Pressure Air Temp Water Temp Dewpoint Dewpoint Depression Visibility Wind Speed Wind Dir Waves Ship Positions

Crystal Island

Last reported at 2014-Nov-23 08:10 UTC. Time now 2014-Dec-18 02:31 UTC.
Position N 46°31' W 125°09'.
Warning: this ship's position is 24 days out of date.

Length 169 m; draft 9.9 m.

Type: Cargo ship. MMSI: 372562000.

Date/timePositionNaut miles runAvg speedWind from/ knotsBaromVisibWave heightAir tempDewpointWater temp
2014-Nov-23 08:10N 46°31' W 125°09'6 9.9
2014-Nov-23 07:33N 46°28' W 125°01'1010.0
2014-Nov-23 06:33N 46°24' W 124°48'10 9.7
2014-Nov-23 05:33N 46°20' W 124°35'1010.0
2014-Nov-23 04:33N 46°14' W 124°23'9 9.3
2014-Nov-23 03:33N 46°13' W 124°10'1010.4
2014-Nov-23 02:34N 46°12' W 123°55'1212.0
2014-Nov-23 01:33N 46°16' W 123°38'1010.2
2014-Nov-23 00:33N 46°11' W 123°25'1110.6
2014-Nov-22 23:34N 46°11' W 123°10'1110.8
2014-Nov-22 22:34N 46°06' W 122°57'9 9.4
2014-Nov-22 21:33N 45°58' W 122°49'1110.8
2014-Nov-22 20:34N 45°47' W 122°47'10 9.6
2014-Nov-22 19:33N 45°38' W 122°43'0 0.1
2014-Nov-22 18:29N 45°38' W 122°42'0 0.0
2014-Nov-22 17:14N 45°38' W 122°42'0 0.0
2014-Nov-22 16:29N 45°38' W 122°42'0 0.0
2014-Nov-22 15:32N 45°38' W 122°42'0 0.0
2014-Nov-22 14:32N 45°38' W 122°42'0 0.0
2014-Nov-22 13:26N 45°38' W 122°42'0 0.0
2014-Nov-22 12:26N 45°38' W 122°42'0 0.0
2014-Nov-22 11:23N 45°38' W 122°42'0 0.0
2014-Nov-22 10:32N 45°38' W 122°42'0 0.0
2014-Nov-22 09:32N 45°38' W 122°42'0 0.0
2014-Nov-22 08:32N 45°38' W 122°42'0 0.0
2014-Nov-22 07:29N 45°38' W 122°42'0 0.0
2014-Nov-22 06:26N 45°38' W 122°42'0 0.0
2014-Nov-22 05:32N 45°38' W 122°42'0 0.0
2014-Nov-22 04:32N 45°38' W 122°42'0 0.0
2014-Nov-22 03:29N 45°38' W 122°42'0 0.0
2014-Nov-22 02:32N 45°38' W 122°42'0 0.0
2014-Nov-22 01:32N 45°38' W 122°42'0 0.0
2014-Nov-22 00:32N 45°38' W 122°42'0 0.0
2014-Nov-21 23:29N 45°38' W 122°42'0 0.0
2014-Nov-21 22:32N 45°38' W 122°42'0 0.0
2014-Nov-21 21:32N 45°38' W 122°42'0 0.0
2014-Nov-21 20:32N 45°38' W 122°42'0 0.0
2014-Nov-21 19:32N 45°38' W 122°42'0 0.0
2014-Nov-21 18:29N 45°38' W 122°42'0 0.0
2014-Nov-21 17:32N 45°38' W 122°42'0 0.0
2014-Nov-21 16:32N 45°38' W 122°42'0 0.0
2014-Nov-21 15:32N 45°38' W 122°42'0 0.0
2014-Nov-21 14:32N 45°38' W 122°42'0 0.0
2014-Nov-21 13:32N 45°38' W 122°42'0 0.0
2014-Nov-21 12:23N 45°38' W 122°42'0 0.0
2014-Nov-21 11:32N 45°38' W 122°42'0 0.0
2014-Nov-21 10:32N 45°38' W 122°42'0 0.0
2014-Nov-21 09:32N 45°38' W 122°42'0 0.0
2014-Nov-21 08:32N 45°38' W 122°42'0 0.0
2014-Nov-21 07:32N 45°38' W 122°42'0 0.0
2014-Nov-21 06:32N 45°38' W 122°42'0 0.0
2014-Nov-21 05:32N 45°38' W 122°42'0 0.0
2014-Nov-21 04:32N 45°38' W 122°42'0 0.0
2014-Nov-21 03:32N 45°38' W 122°42'0 0.1
2014-Nov-21 02:32N 45°38' W 122°42'0 0.0
2014-Nov-21 01:29N 45°38' W 122°42'0 0.0
2014-Nov-21 00:32N 45°38' W 122°42'0 0.0
2014-Nov-20 23:29N 45°38' W 122°42'0 0.0
2014-Nov-20 22:32N 45°38' W 122°42'0 0.0
2014-Nov-20 21:26N 45°38' W 122°42'0 0.0
2014-Nov-20 20:29N 45°38' W 122°42'0 0.0
2014-Nov-20 19:32N 45°38' W 122°42'0 0.0
2014-Nov-20 18:32N 45°38' W 122°42'0 0.0
2014-Nov-20 17:32N 45°38' W 122°42'0 0.0
2014-Nov-20 16:32N 45°38' W 122°42'0 0.0
2014-Nov-20 15:32N 45°38' W 122°42'0 0.0
2014-Nov-20 14:29N 45°38' W 122°42'0 0.0
2014-Nov-20 13:32N 45°38' W 122°42'0 0.0
2014-Nov-20 12:32N 45°38' W 122°42'0 0.0
2014-Nov-20 11:32N 45°38' W 122°42'0 0.0
2014-Nov-20 10:26N 45°38' W 122°42'0 0.0
2014-Nov-20 09:32N 45°38' W 122°42'0 0.0
2014-Nov-20 08:29N 45°38' W 122°42'0 0.0
2014-Nov-20 07:32N 45°38' W 122°42'0 0.0
2014-Nov-20 06:32N 45°38' W 122°42'0 0.0
2014-Nov-20 05:32N 45°38' W 122°42'0 0.0
2014-Nov-20 04:32N 45°38' W 122°42'0 0.0
2014-Nov-20 03:32N 45°38' W 122°42'0 0.0
2014-Nov-20 02:32N 45°38' W 122°42'0 0.0
2014-Nov-20 01:32N 45°38' W 122°42'0 0.0
2014-Nov-20 00:32N 45°38' W 122°42'0 0.0
2014-Nov-19 23:32N 45°38' W 122°42'0 0.0
2014-Nov-19 22:32N 45°38' W 122°42'0 0.0
2014-Nov-19 21:26N 45°38' W 122°42'0 0.0
2014-Nov-19 20:32N 45°38' W 122°42'0 0.0
2014-Nov-19 19:32N 45°38' W 122°42'0 0.0
2014-Nov-19 18:29N 45°38' W 122°42'0 0.0
2014-Nov-19 17:32N 45°38' W 122°42'0 0.0
2014-Nov-19 16:29N 45°38' W 122°42'0 0.0
2014-Nov-19 15:32N 45°38' W 122°42'0 0.0
2014-Nov-19 14:32N 45°38' W 122°42'0 0.0
2014-Nov-19 13:32N 45°38' W 122°42'0 0.0
2014-Nov-19 12:32N 45°38' W 122°42'0 0.0
2014-Nov-19 11:29N 45°38' W 122°42'0 0.0
2014-Nov-19 10:23N 45°38' W 122°42'0 0.0
2014-Nov-19 09:32N 45°38' W 122°42'0 0.0
2014-Nov-19 08:32N 45°38' W 122°42'0 0.0
2014-Nov-19 07:23N 45°38' W 122°42'0 0.0
2014-Nov-19 06:32N 45°38' W 122°42'0 0.0
2014-Nov-19 05:29N 45°38' W 122°42'0 0.0
2014-Nov-19 04:32N 45°38' W 122°42'0 0.0
2014-Nov-19 03:32N 45°38' W 122°42'0 0.0
2014-Nov-19 02:32N 45°38' W 122°42'0 0.0
2014-Nov-19 01:32N 45°38' W 122°42'0 0.0
2014-Nov-19 00:32N 45°38' W 122°42'0 0.0
2014-Nov-18 23:32N 45°38' W 122°42'0 0.0
2014-Nov-18 22:33N 45°38' W 122°42'3 3.0
2014-Nov-18 21:34N 45°38' W 122°47'0 0.0
2014-Nov-18 20:29N 45°38' W 122°47'0 0.0
2014-Nov-18 19:32N 45°38' W 122°47'0 0.0
2014-Nov-18 18:32N 45°38' W 122°47'0 0.0
2014-Nov-18 17:29N 45°38' W 122°47'0 0.0
2014-Nov-18 16:32N 45°38' W 122°47'0 0.0
2014-Nov-18 15:32N 45°38' W 122°47'0 0.0
2014-Nov-18 14:32N 45°38' W 122°47'0 0.0
2014-Nov-18 13:32N 45°38' W 122°47'0 0.0
2014-Nov-18 12:29N 45°38' W 122°47'0 0.0
2014-Nov-18 11:32N 45°38' W 122°47'0 0.0
2014-Nov-18 10:32N 45°38' W 122°47'0 0.0
2014-Nov-18 09:32N 45°38' W 122°47'0 0.0
2014-Nov-18 08:32N 45°38' W 122°47'0 0.0
2014-Nov-18 07:32N 45°38' W 122°47'0 0.1
2014-Nov-18 06:33N 45°38' W 122°47'2 2.1
2014-Nov-18 05:30N 45°41' W 122°46'0 0.0
2014-Nov-18 04:33N 45°41' W 122°46'0 0.0
2014-Nov-18 03:33N 45°41' W 122°46'0 0.0
2014-Nov-18 02:33N 45°41' W 122°46'0 0.0
2014-Nov-18 01:33N 45°41' W 122°46'0 0.0
2014-Nov-18 00:30N 45°41' W 122°46'0 0.0
2014-Nov-17 23:33N 45°41' W 122°46'0 0.0
2014-Nov-17 22:30N 45°41' W 122°46'0 0.0
2014-Nov-17 21:33N 45°41' W 122°46'0 0.0
2014-Nov-17 20:30N 45°41' W 122°46'0 0.0
2014-Nov-17 19:33N 45°41' W 122°46'0 0.0
2014-Nov-17 18:33N 45°41' W 122°46'0 0.0
2014-Nov-17 17:33N 45°41' W 122°46'0 0.0
2014-Nov-17 16:33N 45°41' W 122°46'0 0.0
2014-Nov-17 15:33N 45°41' W 122°46'0 0.0
2014-Nov-17 14:30N 45°41' W 122°46'0 0.0
2014-Nov-17 13:33N 45°41' W 122°46'0 0.0
2014-Nov-17 12:30N 45°41' W 122°46'0 0.0
2014-Nov-17 11:33N 45°41' W 122°46'0 0.0
2014-Nov-17 10:33N 45°41' W 122°46'0 0.0
2014-Nov-17 09:30N 45°41' W 122°46'0 0.0
2014-Nov-17 08:33N 45°41' W 122°46'0 0.0
2014-Nov-17 07:33N 45°41' W 122°46'0 0.0
2014-Nov-17 06:30N 45°41' W 122°46'0 0.0
2014-Nov-17 05:33N 45°41' W 122°46'0 0.0
2014-Nov-17 04:33N 45°41' W 122°46'0 0.0
2014-Nov-17 03:30N 45°41' W 122°46'0 0.0
2014-Nov-17 02:27N 45°41' W 122°46'0 0.0
2014-Nov-17 01:33N 45°41' W 122°46'0 0.0
2014-Nov-17 00:30N 45°41' W 122°46'0 0.0
2014-Nov-16 23:33N 45°41' W 122°46'0 0.0
2014-Nov-16 22:33N 45°41' W 122°46'0 0.0
2014-Nov-16 21:33N 45°41' W 122°46'0 0.0
2014-Nov-16 20:33N 45°41' W 122°46'0 0.0
2014-Nov-16 19:33N 45°41' W 122°46'0 0.0
2014-Nov-16 18:30N 45°41' W 122°46'0 0.0
2014-Nov-16 17:33N 45°41' W 122°46'0 0.0
2014-Nov-16 16:33N 45°41' W 122°46'0 0.0
2014-Nov-16 15:33N 45°41' W 122°46'0 0.0
2014-Nov-16 14:33N 45°41' W 122°46'0 0.0
2014-Nov-16 13:33N 45°41' W 122°46'0 0.0
2014-Nov-16 12:33N 45°41' W 122°46'0 0.0
2014-Nov-16 11:33N 45°41' W 122°46'0 0.0
2014-Nov-16 10:33N 45°41' W 122°46'0 0.0
2014-Nov-16 09:33N 45°41' W 122°46'0 0.0
2014-Nov-16 08:33N 45°41' W 122°46'0 0.0
2014-Nov-16 07:24N 45°41' W 122°46'0 0.0
2014-Nov-16 06:30N 45°41' W 122°46'0 0.0
2014-Nov-16 05:27N 45°41' W 122°46'3 3.6
2014-Nov-16 04:33N 45°44' W 122°46'1111.0
2014-Nov-16 03:33N 45°55' W 122°49'1010.2
2014-Nov-16 02:33N 46°04' W 122°53'10 9.7
2014-Nov-16 01:33N 46°10' W 123°05'1010.2
2014-Nov-16 00:33N 46°09' W 123°19'9 8.6
2014-Nov-15 23:33N 46°15' W 123°27'1110.6
2014-Nov-15 22:33N 46°15' W 123°42'9 8.8
2014-Nov-15 21:33N 46°11' W 123°54'9 8.8
2014-Nov-15 20:33N 46°15' W 124°06'9 9.0
2014-Nov-15 19:33N 46°12' W 124°18'5 5.3
2014-Nov-15 18:33N 46°13' W 124°26'9 8.8
2014-Nov-15 17:33N 46°15' W 124°38'1010.3
2014-Nov-15 16:33N 46°17' W 124°53'1110.7
2014-Nov-15 15:33N 46°19' W 125°08'1110.8
2014-Nov-15 14:31N 46°21' W 125°24'  

Dump ship's entire track history